KJLN

Joplin Regional Airport

Joplin, Missouri, USA
METAR KJLN 151914Z 04012KT 4SM -SNPL OVC013 M03/M05 A2990 RMK AO2 SNB08PLB08 P0000 T10331050
Observed Flight Rules
Feb-15 @ 19:14 UTC (22 minutes ago) Marginal Visual Flight Rules
Wind Visibility Clouds Conditions
40° at 12 knots 4 miles
  • Overcast at 1,300' AGL
  • Light Snow
Temperatures Readings Precipitation
Current -3°C / 27°F
Dewpoint -5°C / 23°F
Humidity 86%
Altimeter 29.9" Hg
Pressure 1012.52 hPa
Elevation 299
Current Rain 0.01
METAR KJLN 151914Z 04012KT 4SM -SNPL OVC013 M03/M05 A2990 RMK AO2 SNB08PLB08 P0000 T10331050
Observed Flight Rules
Feb-15 @ 19:14 UTC
(22 minutes ago)
MVFR
Wind Visibility
40° at 12 knots 4 miles
Clouds
  • Overcast at 1,300' AGL
Conditions
  • Light Snow
Temperature Dewpoint
-3°C / 27°F -5°C / 23°F
Humidity Altimeter Pressure
86% 29.9" Hg 1012.52 hPa
Current Rain
0.01